Time;durP1;ratioP1;P1;durP2;ratioP2;P2;SDS_P1;SDS_P2;PMS_P1;PMS_P2;Temp;Humidity;BMP_temperature;BMP_pressure;BME280_temperature;BME280_humidity;BME280_pressure;Samples;Min_cycle;Max_cycle;Signal;HPM_P1;HPM_P2
2022/01/04 00:00:19;;;;;;;16.23;2.25;;;8.00;99.90;;;;;;4233810;27;20502;-86
2022/01/04 00:02:19;;;;;;;15.88;2.38;;;9.10;99.90;;;;;;4245515;27;20047;-86
2022/01/04 00:04:20;;;;;;;13.43;2.40;;;8.50;99.90;;;;;;4230890;28;20130;-86
2022/01/04 00:06:21;;;;;;;8.55;1.80;;;7.80;99.90;;;;;;4246227;27;20126;-86
2022/01/04 00:08:27;;;;;;;13.30;2.28;;;8.00;99.90;;;;;;4249652;27;20487;-86
2022/01/04 00:10:30;;;;;;;16.00;2.72;;;8.50;99.90;;;;;;4252446;27;20038;-86
2022/01/04 00:14:50;;;;;;;16.30;2.83;;;7.80;99.90;;;;;;4253328;27;20118;-86
2022/01/04 00:16:55;;;;;;;18.17;2.85;;;8.60;99.90;;;;;;4242001;28;20174;-86
2022/01/04 00:19:01;;;;;;;10.05;2.53;;;7.80;99.90;;;;;;4244202;28;20495;-86
2022/01/04 00:21:02;;;;;;;17.75;2.55;;;7.70;99.90;;;;;;4240621;28;20070;-86
2022/01/04 00:23:03;;;;;;;15.40;2.30;;;7.80;99.90;;;;;;4227067;28;20427;-86
2022/01/04 00:25:08;;;;;;;17.88;2.90;;;6.90;99.90;;;;;;4220451;28;20047;-86
2022/01/04 00:27:08;;;;;;;20.98;2.55;;;7.70;99.90;;;;;;4233803;28;20134;-86
2022/01/04 00:29:09;;;;;;;7.68;2.45;;;7.70;99.90;;;;;;4228960;28;20520;-86
2022/01/04 00:31:10;;;;;;;15.52;2.17;;;7.70;99.90;;;;;;4228857;28;20040;-86
2022/01/04 00:33:18;;;;;;;17.92;2.40;;;8.10;99.90;;;;;;4247279;28;20036;-86
2022/01/04 00:35:19;;;;;;;8.65;2.03;;;7.60;99.90;;;;;;4229770;28;20165;-86
2022/01/04 00:37:23;;;;;;;9.20;1.92;;;6.70;99.90;;;;;;4226646;28;20062;-86
2022/01/04 00:39:24;;;;;;;9.65;1.25;;;8.90;99.90;;;;;;4262034;27;20057;-86
2022/01/04 00:41:25;;;;;;;13.00;2.33;;;8.40;99.90;;;;;;4263047;27;20054;-87
2022/01/04 00:43:28;;;;;;;13.75;2.65;;;7.70;99.90;;;;;;4218007;28;20549;-86
2022/01/04 00:45:35;;;;;;;22.88;3.78;;;7.70;99.90;;;;;;4239055;28;20062;-86
2022/01/04 00:49:09;;;;;;;20.80;3.88;;;7.90;99.90;;;;;;4263177;27;20546;-86
2022/01/04 00:50:07;;;;;;;17.48;2.75;;;8.70;99.90;;;;;;4239067;28;20402;-86
2022/01/04 00:52:14;;;;;;;12.85;3.03;;;7.60;99.90;;;;;;4234261;28;20534;-86
2022/01/04 00:54:21;;;;;;;11.45;1.55;;;8.10;99.90;;;;;;4220545;28;20156;-86
2022/01/04 00:56:26;;;;;;;12.23;2.40;;;8.40;99.90;;;;;;4223152;28;20538;-86
2022/01/04 00:58:29;;;;;;;20.02;2.50;;;7.60;99.90;;;;;;4239935;27;20520;-86
2022/01/04 01:00:34;;;;;;;12.15;3.03;;;7.60;99.90;;;;;;4262805;27;20084;-85
2022/01/04 01:02:38;;;;;;;13.20;3.08;;;7.60;99.90;;;;;;4237413;28;20103;-85
2022/01/04 01:04:39;;;;;;;12.43;2.75;;;7.60;99.90;;;;;;4246906;28;20039;-86
2022/01/04 01:06:40;;;;;;;20.90;2.85;;;7.70;99.90;;;;;;4211466;28;20146;-86
2022/01/04 01:08:42;;;;;;;11.05;2.30;;;7.70;99.90;;;;;;4228421;28;20054;-86
2022/01/04 01:10:46;;;;;;;12.65;3.03;;;7.60;99.90;;;;;;4228698;28;20106;-86
2022/01/04 01:12:47;;;;;;;23.40;3.05;;;7.60;99.90;;;;;;4250428;27;20035;-85
2022/01/04 01:14:50;;;;;;;14.35;3.55;;;8.60;99.90;;;;;;4216192;28;20042;-86
2022/01/04 01:16:57;;;;;;;14.15;2.85;;;8.20;99.90;;;;;;4262842;27;20069;-85
2022/01/04 01:18:58;;;;;;;9.32;3.65;;;7.60;99.90;;;;;;4241755;28;20055;-85
2022/01/04 01:20:59;;;;;;;13.25;2.80;;;7.70;99.90;;;;;;4211496;28;20048;-85
2022/01/04 01:23:03;;;;;;;15.98;3.88;;;7.60;99.90;;;;;;4265060;27;20050;-85
2022/01/04 01:25:05;;;;;;;18.48;4.60;;;8.70;99.90;;;;;;4250452;27;20483;-86
2022/01/04 01:27:10;;;;;;;15.20;3.42;;;7.60;99.90;;;;;;4261712;27;20038;-85
2022/01/04 01:29:12;;;;;;;16.05;3.03;;;6.90;99.90;;;;;;4242781;27;20093;-85
2022/01/04 01:31:13;;;;;;;19.60;3.92;;;7.50;99.90;;;;;;4231598;27;20051;-85
2022/01/04 01:33:15;;;;;;;21.95;3.03;;;8.00;99.90;;;;;;4262953;27;20034;-86
2022/01/04 01:35:16;;;;;;;11.57;2.97;;;7.60;99.90;;;;;;4247360;27;20127;-86
2022/01/04 01:37:16;;;;;;;9.82;2.88;;;7.70;99.90;;;;;;4255809;27;20035;-86
2022/01/04 01:39:17;;;;;;;11.85;2.80;;;7.70;99.90;;;;;;4248662;27;20038;-85
2022/01/04 01:41:18;;;;;;;13.55;3.15;;;7.70;99.90;;;;;;4230348;28;20540;-86
2022/01/04 01:43:19;;;;;;;17.98;3.40;;;7.80;99.90;;;;;;4230371;28;20116;-85
2022/01/04 01:45:22;;;;;;;13.55;2.90;;;7.70;99.90;;;;;;4265461;27;20047;-86
2022/01/04 01:47:22;;;;;;;13.45;3.55;;;7.70;99.90;;;;;;4264925;27;20042;-86
2022/01/04 01:49:24;;;;;;;13.93;2.95;;;7.70;99.90;;;;;;4222019;28;20047;-86
2022/01/04 01:51:28;;;;;;;20.30;3.70;;;7.70;99.90;;;;;;4248739;27;20027;-86
2022/01/04 01:53:28;;;;;;;22.65;3.70;;;8.10;99.90;;;;;;4248837;27;20043;-86
2022/01/04 01:55:29;;;;;;;14.90;3.47;;;7.70;99.90;;;;;;4230883;28;20427;-86
2022/01/04 01:57:30;;;;;;;18.70;2.92;;;7.00;99.90;;;;;;4231355;28;20075;-86
2022/01/04 01:59:31;;;;;;;19.23;3.55;;;8.30;99.90;;;;;;4249193;27;20101;-86
2022/01/04 02:01:32;;;;;;;14.60;3.05;;;8.60;99.90;;;;;;4249415;27;20550;-85
2022/01/04 02:03:32;;;;;;;17.13;3.80;;;9.10;99.90;;;;;;4230790;28;20077;-86
2022/01/04 02:05:33;;;;;;;19.02;3.22;;;7.80;99.90;;;;;;4218826;28;20043;-86
2022/01/04 02:07:35;;;;;;;14.95;3.00;;;7.90;99.90;;;;;;4249361;27;20039;-86
2022/01/04 02:09:40;;;;;;;19.45;4.97;;;7.70;99.90;;;;;;4230308;28;20063;-85
2022/01/04 02:11:42;;;;;;;18.00;3.03;;;8.20;99.90;;;;;;4246782;27;20059;-86
2022/01/04 02:13:43;;;;;;;17.90;4.13;;;8.20;99.90;;;;;;4252203;27;20092;-86
2022/01/04 02:15:43;;;;;;;15.18;2.83;;;8.30;99.90;;;;;;4229192;28;20047;-86
2022/01/04 02:17:45;;;;;;;11.65;2.95;;;7.80;99.90;;;;;;4239959;27;20043;-86
2022/01/04 02:19:46;;;;;;;10.73;2.85;;;8.30;99.90;;;;;;4237296;27;20056;-86
2022/01/04 02:21:47;;;;;;;14.10;2.55;;;8.10;99.90;;;;;;4219621;28;20087;-86
2022/01/04 02:23:48;;;;;;;22.70;4.03;;;8.80;99.90;;;;;;4239349;27;20047;-86
2022/01/04 02:25:49;;;;;;;20.08;3.60;;;7.70;99.90;;;;;;4242048;27;20045;-85
2022/01/04 02:27:51;;;;;;;18.27;3.03;;;8.10;99.90;;;;;;4230381;28;20087;-86
2022/01/04 02:29:52;;;;;;;15.25;2.55;;;8.40;99.90;;;;;;4245316;27;20129;-86
2022/01/04 02:31:53;;;;;;;18.52;3.20;;;8.60;99.90;;;;;;4261401;27;20430;-87
2022/01/04 02:33:54;;;;;;;19.80;3.83;;;7.70;99.90;;;;;;4217573;28;20044;-87
2022/01/04 02:35:55;;;;;;;14.02;2.70;;;8.40;99.90;;;;;;4257045;27;20031;-87
2022/01/04 02:37:57;;;;;;;9.10;2.33;;;7.80;99.90;;;;;;4216886;28;20044;-87
2022/01/04 02:39:59;;;;;;;23.55;3.97;;;8.90;99.90;;;;;;4250266;27;20051;-87
2022/01/04 02:41:59;;;;;;;18.10;3.08;;;7.90;99.90;;;;;;4247565;27;20039;-87
2022/01/04 02:44:00;;;;;;;16.55;2.65;;;9.00;99.90;;;;;;4230489;28;20062;-87
2022/01/04 02:46:01;;;;;;;22.75;2.80;;;7.70;99.90;;;;;;4245351;27;20057;-86
2022/01/04 02:48:02;;;;;;;14.95;2.92;;;6.90;99.90;;;;;;4245489;27;20046;-87
2022/01/04 02:50:04;;;;;;;16.45;2.88;;;7.70;99.90;;;;;;4224526;28;20515;-87
2022/01/04 02:52:05;;;;;;;20.95;3.03;;;7.70;99.90;;;;;;4247455;27;20485;-87
2022/01/04 02:54:06;;;;;;;19.42;3.33;;;7.70;99.90;;;;;;4218261;28;20148;-87
2022/01/04 02:56:07;;;;;;;18.20;2.78;;;8.10;99.90;;;;;;4248432;27;20027;-87
2022/01/04 02:58:08;;;;;;;13.93;3.03;;;8.10;99.90;;;;;;4242131;27;20059;-87
2022/01/04 03:00:12;;;;;;;15.52;3.15;;;8.70;99.90;;;;;;4247945;27;20532;-87
2022/01/04 03:02:13;;;;;;;17.17;2.72;;;7.70;99.90;;;;;;4263539;27;20046;-87
2022/01/04 03:04:15;;;;;;;20.48;3.35;;;7.70;99.90;;;;;;4247726;27;20394;-86
2022/01/04 03:06:16;;;;;;;16.17;2.28;;;7.70;99.90;;;;;;4259024;27;20114;-87
2022/01/04 03:08:17;;;;;;;23.48;3.80;;;8.70;99.90;;;;;;4238476;27;20514;-86
2022/01/04 03:10:18;;;;;;;14.07;3.20;;;8.40;99.90;;;;;;4247458;27;20027;-86
2022/01/04 03:12:18;;;;;;;28.38;3.13;;;7.70;99.90;;;;;;4253343;27;20035;-87
2022/01/04 03:14:19;;;;;;;13.80;2.50;;;7.80;99.90;;;;;;4214289;28;20149;-87
2022/01/04 03:16:20;;;;;;;22.80;3.53;;;8.40;99.90;;;;;;4247919;27;20495;-87
2022/01/04 03:18:21;;;;;;;11.93;2.47;;;8.30;99.90;;;;;;4229609;28;20051;-86
2022/01/04 03:20:22;;;;;;;15.68;2.60;;;8.30;99.90;;;;;;4229538;28;20047;-86
2022/01/04 03:22:24;;;;;;;16.40;2.65;;;8.20;99.90;;;;;;4229940;28;20124;-86
2022/01/04 03:24:25;;;;;;;22.90;2.97;;;8.50;99.90;;;;;;4229615;28;20055;-87
2022/01/04 03:26:26;;;;;;;24.20;3.20;;;7.80;99.90;;;;;;4229661;28;20188;-87
2022/01/04 03:28:27;;;;;;;13.63;3.72;;;7.70;99.90;;;;;;4213002;28;20040;-87
2022/01/04 03:30:28;;;;;;;11.82;2.50;;;7.90;99.90;;;;;;4212486;28;20105;-86
2022/01/04 03:32:28;;;;;;;16.30;2.85;;;7.90;99.90;;;;;;4259788;27;20035;-86
2022/01/04 03:34:29;;;;;;;18.58;3.25;;;8.40;99.90;;;;;;4258700;27;20495;-87
2022/01/04 03:36:30;;;;;;;16.48;2.67;;;7.50;99.90;;;;;;4261639;27;20045;-87
2022/01/04 03:38:31;;;;;;;15.00;3.13;;;8.20;99.90;;;;;;4264376;27;20529;-87
2022/01/04 03:40:32;;;;;;;20.73;3.45;;;8.60;99.90;;;;;;4217198;28;20048;-86
2022/01/04 03:42:34;;;;;;;20.08;2.85;;;8.40;99.90;;;;;;4242035;27;20047;-87
2022/01/04 03:44:35;;;;;;;18.10;2.70;;;7.90;99.90;;;;;;4254819;27;20510;-86
2022/01/04 03:46:36;;;;;;;20.17;3.95;;;7.90;99.90;;;;;;4228711;28;20048;-87
2022/01/04 03:48:37;;;;;;;23.23;3.72;;;7.90;99.90;;;;;;4242836;27;20050;-87
2022/01/04 03:50:39;;;;;;;22.60;2.83;;;7.90;99.90;;;;;;4259196;27;20031;-86
2022/01/04 03:52:40;;;;;;;14.43;2.90;;;7.90;99.90;;;;;;4238749;27;20044;-86
2022/01/04 03:54:41;;;;;;;17.35;2.83;;;7.90;99.90;;;;;;4250576;27;20047;-86
2022/01/04 03:56:42;;;;;;;13.32;2.63;;;8.50;99.90;;;;;;4246016;27;20169;-86
2022/01/04 03:58:43;;;;;;;25.38;2.97;;;7.90;99.90;;;;;;4263576;27;20038;-86
2022/01/04 04:00:44;;;;;;;16.63;3.60;;;7.90;99.90;;;;;;4255877;27;20062;-87
2022/01/04 04:02:45;;;;;;;13.02;4.15;;;7.90;99.90;;;;;;4257088;27;20474;-86
2022/01/04 04:04:45;;;;;;;15.85;3.40;;;7.10;99.90;;;;;;4252865;27;20038;-87
2022/01/04 04:06:47;;;;;;;26.35;2.65;;;8.60;99.90;;;;;;4217039;28;20205;-87
2022/01/04 04:08:48;;;;;;;12.90;2.95;;;7.90;99.90;;;;;;4227567;28;20687;-87
2022/01/04 04:10:50;;;;;;;14.15;3.58;;;7.90;99.90;;;;;;4258880;27;20095;-86
2022/01/04 04:12:50;;;;;;;20.83;3.95;;;8.70;99.90;;;;;;4223745;28;20036;-87
2022/01/04 04:14:51;;;;;;;19.73;3.67;;;8.60;99.90;;;;;;4240750;28;20097;-87
2022/01/04 04:16:52;;;;;;;11.85;3.00;;;7.90;99.90;;;;;;4228221;28;20119;-87
2022/01/04 04:18:53;;;;;;;14.43;2.60;;;8.50;99.90;;;;;;4250689;27;20117;-87
2022/01/04 04:20:55;;;;;;;24.80;2.65;;;9.00;99.90;;;;;;4263087;27;20034;-86
2022/01/04 04:22:55;;;;;;;13.82;2.55;;;7.90;99.90;;;;;;4260300;27;20070;-86
2022/01/04 04:24:56;;;;;;;13.82;3.08;;;8.70;99.90;;;;;;4240900;28;20480;-87
2022/01/04 04:26:57;;;;;;;11.93;2.38;;;8.20;99.90;;;;;;4243596;28;20048;-86
2022/01/04 04:28:58;;;;;;;26.20;4.93;;;7.90;99.90;;;;;;4257990;27;20054;-87
2022/01/04 04:31:01;;;;;;;13.43;2.60;;;7.90;99.90;;;;;;4228088;28;20055;-87
2022/01/04 04:33:02;;;;;;;19.25;2.67;;;9.00;99.90;;;;;;4238642;28;20047;-87
2022/01/04 04:35:07;;;;;;;17.88;3.75;;;7.90;99.90;;;;;;4211544;28;20059;-87
2022/01/04 04:37:08;;;;;;;11.05;2.92;;;7.90;99.90;;;;;;4227762;28;20455;-86
2022/01/04 04:39:10;;;;;;;16.38;2.83;;;9.10;99.90;;;;;;4246314;27;20047;-86
2022/01/04 04:41:10;;;;;;;16.55;3.63;;;8.30;99.90;;;;;;4228096;28;20426;-87
2022/01/04 04:43:11;;;;;;;17.08;3.22;;;8.10;99.90;;;;;;4218630;28;20127;-86
2022/01/04 04:45:12;;;;;;;17.10;2.75;;;8.10;99.90;;;;;;4258083;27;20095;-87
2022/01/04 04:47:13;;;;;;;11.10;3.28;;;8.00;99.90;;;;;;4257083;27;20035;-86
2022/01/04 04:49:16;;;;;;;18.38;3.28;;;7.90;99.90;;;;;;4219689;28;20135;-87
2022/01/04 04:51:20;;;;;;;17.27;3.25;;;8.60;99.90;;;;;;4228199;28;20040;-87
2022/01/04 04:53:21;;;;;;;17.65;3.10;;;8.00;99.90;;;;;;4245526;27;20118;-87
2022/01/04 04:55:21;;;;;;;17.50;3.22;;;8.20;99.90;;;;;;4248096;27;20478;-87
2022/01/04 04:57:22;;;;;;;15.82;3.50;;;7.90;99.90;;;;;;4263528;27;20057;-87
2022/01/04 04:59:23;;;;;;;20.48;5.55;;;9.00;99.90;;;;;;4267432;27;20427;-87
2022/01/04 05:01:24;;;;;;;17.38;3.35;;;8.60;99.90;;;;;;4231127;27;21010;-87
2022/01/04 05:03:25;;;;;;;19.73;2.97;;;8.90;99.90;;;;;;4239670;27;20493;-87
2022/01/04 05:05:26;;;;;;;18.85;4.30;;;7.90;99.90;;;;;;4230841;28;20130;-87
2022/01/04 05:07:27;;;;;;;13.77;3.35;;;7.80;99.90;;;;;;4239967;27;20043;-87
2022/01/04 05:09:28;;;;;;;14.02;2.97;;;7.90;99.90;;;;;;4239735;27;20050;-87
2022/01/04 05:11:29;;;;;;;15.73;3.55;;;8.10;99.90;;;;;;4252539;27;20043;-87
2022/01/04 05:13:31;;;;;;;18.05;3.95;;;7.80;99.90;;;;;;4237692;27;20050;-87
2022/01/04 05:15:32;;;;;;;17.02;3.22;;;7.90;99.90;;;;;;4232387;27;20051;-87
2022/01/04 05:17:33;;;;;;;13.65;3.40;;;7.90;99.90;;;;;;4266257;27;20035;-87
2022/01/04 05:19:34;;;;;;;18.27;3.47;;;8.20;99.90;;;;;;4256374;27;20043;-87
2022/01/04 05:21:35;;;;;;;26.92;4.75;;;8.00;99.90;;;;;;4230875;27;20477;-86
2022/01/04 05:23:38;;;;;;;22.08;3.80;;;9.10;99.90;;;;;;4265641;27;20459;-87
2022/01/04 05:25:42;;;;;;;14.65;3.58;;;7.90;99.90;;;;;;4254854;27;20039;-86
2022/01/04 05:27:43;;;;;;;15.07;3.08;;;8.00;99.90;;;;;;4235306;27;20047;-86
2022/01/04 05:29:43;;;;;;;9.80;3.10;;;7.90;99.90;;;;;;4254763;27;20039;-86
2022/01/04 05:31:44;;;;;;;13.52;3.72;;;7.90;99.90;;;;;;4235215;27;20113;-87
2022/01/04 05:33:45;;;;;;;16.88;3.78;;;8.90;99.90;;;;;;4231142;28;20044;-86
2022/01/04 05:35:49;;;;;;;11.73;3.35;;;7.90;99.90;;;;;;4241670;27;20042;-86
2022/01/04 05:37:50;;;;;;;14.50;4.05;;;8.60;99.90;;;;;;4254950;27;20042;-86
2022/01/04 05:39:51;;;;;;;16.50;3.53;;;7.90;99.90;;;;;;4244164;27;20534;-86
2022/01/04 05:41:52;;;;;;;14.18;3.53;;;7.90;99.90;;;;;;4247574;27;20054;-86
2022/01/04 05:43:52;;;;;;;16.40;3.90;;;7.80;99.90;;;;;;4231686;27;20261;-86
2022/01/04 05:45:53;;;;;;;25.40;3.63;;;8.30;99.90;;;;;;4247457;27;20386;-86
2022/01/04 05:47:54;;;;;;;16.25;3.55;;;8.60;99.90;;;;;;4230063;28;20411;-86
2022/01/04 05:49:57;;;;;;;23.77;3.38;;;7.80;99.90;;;;;;4248810;27;20047;-86
2022/01/04 05:51:58;;;;;;;18.77;4.65;;;7.90;99.90;;;;;;4230903;28;20039;-85
2022/01/04 05:53:58;;;;;;;12.90;3.60;;;8.50;99.90;;;;;;4217670;28;20054;-85
2022/01/04 05:55:59;;;;;;;11.63;3.45;;;9.00;99.90;;;;;;4252305;27;20043;-86
2022/01/04 05:58:00;;;;;;;18.52;3.58;;;7.80;99.90;;;;;;4249794;27;20547;-86
2022/01/04 06:00:03;;;;;;;17.65;4.07;;;7.80;99.90;;;;;;4234552;27;20055;-86
2022/01/04 06:02:04;;;;;;;16.08;4.90;;;9.10;99.90;;;;;;4243119;27;20035;-86
2022/01/04 06:04:05;;;;;;;13.68;3.58;;;7.70;99.90;;;;;;4231176;28;20059;-86
2022/01/04 06:06:09;;;;;;;18.42;3.75;;;9.00;99.90;;;;;;4249253;27;20077;-86
2022/01/04 06:08:11;;;;;;;25.60;4.60;;;8.40;99.90;;;;;;4248459;27;20465;-86
2022/01/04 06:10:14;;;;;;;10.52;4.20;;;8.40;99.90;;;;;;4219263;28;20040;-85
2022/01/04 06:14:51;;;;;;;18.27;3.38;;;7.30;99.90;;;;;;4232070;27;20130;-86
2022/01/04 06:16:51;;;;;;;19.25;3.97;;;8.00;99.90;;;;;;4235151;27;20043;-86
2022/01/04 06:18:52;;;;;;;15.95;4.10;;;8.70;99.90;;;;;;4236906;27;20039;-86
2022/01/04 06:20:56;;;;;;;18.02;4.25;;;8.20;99.90;;;;;;4247543;27;20054;-86
2022/01/04 06:22:57;;;;;;;21.15;4.13;;;7.80;99.90;;;;;;4230237;28;20044;-86
2022/01/04 06:25:01;;;;;;;12.07;3.72;;;7.80;99.90;;;;;;4230341;28;20079;-86
2022/01/04 06:27:07;;;;;;;18.38;4.03;;;7.80;99.90;;;;;;4248918;27;20039;-86
2022/01/04 06:29:11;;;;;;;17.55;4.03;;;7.80;99.90;;;;;;4230883;28;20039;-86
2022/01/04 06:31:12;;;;;;;14.40;3.72;;;7.80;99.90;;;;;;4214100;28;20516;-86
2022/01/04 06:33:13;;;;;;;21.80;4.43;;;7.80;99.90;;;;;;4232810;27;20053;-86
2022/01/04 06:35:15;;;;;;;16.52;4.57;;;7.70;99.90;;;;;;4266084;27;20045;-86
2022/01/04 06:37:18;;;;;;;20.08;4.70;;;8.80;99.90;;;;;;4228019;28;20043;-86
2022/01/04 06:39:23;;;;;;;15.68;3.78;;;8.90;99.90;;;;;;4265842;27;20098;-86
2022/01/04 06:41:24;;;;;;;23.48;4.15;;;8.00;99.90;;;;;;4265062;27;20054;-86
2022/01/04 06:43:27;;;;;;;15.70;3.80;;;7.80;99.90;;;;;;4256657;27;20100;-86
2022/01/04 06:45:29;;;;;;;17.48;3.25;;;8.70;99.90;;;;;;4230179;28;20085;-86
2022/01/04 06:47:30;;;;;;;20.90;4.18;;;8.70;99.90;;;;;;4229838;28;20048;-86
2022/01/04 06:49:33;;;;;;;11.75;3.17;;;8.40;99.90;;;;;;4238366;27;20540;-86
2022/01/04 06:51:34;;;;;;;17.33;3.65;;;7.90;99.90;;;;;;4230196;28;20085;-86
2022/01/04 06:53:35;;;;;;;10.32;3.20;;;8.30;99.90;;;;;;4221761;28;20469;-86
2022/01/04 06:55:42;;;;;;;17.58;3.53;;;7.80;99.90;;;;;;4240171;27;20103;-86
2022/01/04 06:57:43;;;;;;;17.67;3.00;;;7.80;99.90;;;;;;4247015;27;20087;-86
2022/01/04 06:59:45;;;;;;;25.42;3.50;;;8.10;99.90;;;;;;4230261;28;20035;-86
2022/01/04 07:01:46;;;;;;;13.77;3.90;;;7.80;99.90;;;;;;4246827;27;20416;-86
2022/01/04 07:03:50;;;;;;;16.08;3.75;;;9.00;99.90;;;;;;4265357;27;20042;-86
2022/01/04 07:05:52;;;;;;;14.40;3.28;;;7.80;99.90;;;;;;4247038;27;20465;-86
2022/01/04 07:07:53;;;;;;;10.82;3.08;;;7.80;99.90;;;;;;4229464;28;20118;-86
2022/01/04 07:09:56;;;;;;;11.75;2.40;;;8.20;99.90;;;;;;4229998;28;20114;-86
2022/01/04 07:11:57;;;;;;;14.80;2.70;;;8.90;99.90;;;;;;4257889;27;20031;-86
2022/01/04 07:13:58;;;;;;;20.98;2.45;;;7.80;99.90;;;;;;4238874;27;20031;-86
2022/01/04 07:15:59;;;;;;;16.20;2.28;;;7.80;99.90;;;;;;4229818;28;20085;-86
2022/01/04 07:18:00;;;;;;;14.02;4.45;;;7.80;99.90;;;;;;4248019;27;20043;-86
2022/01/04 07:20:00;;;;;;;15.38;3.75;;;8.70;99.90;;;;;;4226337;28;20081;-86
2022/01/04 07:22:02;;;;;;;18.95;4.18;;;7.80;99.90;;;;;;4248417;27;20043;-86
2022/01/04 07:24:06;;;;;;;6.97;1.80;;;7.90;99.90;;;;;;4248699;27;20043;-86
2022/01/04 07:26:11;;;;;;;13.82;2.85;;;7.80;99.90;;;;;;4249422;27;20407;-82
2022/01/04 07:28:12;;;;;;;13.77;2.60;;;7.80;99.90;;;;;;4246516;27;20051;-83
2022/01/04 07:30:13;;;;;;;8.90;2.00;;;7.80;99.90;;;;;;4229260;28;20044;-84
2022/01/04 07:32:14;;;;;;;7.55;1.83;;;8.10;99.90;;;;;;4244119;27;20102;-84
2022/01/04 07:34:15;;;;;;;16.83;2.00;;;7.80;99.90;;;;;;4265102;27;20057;-83
2022/01/04 07:36:28;;;;;;;;;;;;;;;;;;;;;
2022/01/04 07:38:33;;;;;;;9.50;1.98;;;7.80;99.90;;;;;;4246619;27;20055;-84
2022/01/04 07:40:33;;;;;;;10.68;2.08;;;9.10;99.90;;;;;;4264150;27;20050;-84
2022/01/04 07:42:34;;;;;;;11.55;2.33;;;7.80;99.90;;;;;;4229215;28;20201;-83
2022/01/04 07:44:35;;;;;;;11.85;2.38;;;8.80;99.90;;;;;;4264789;27;20091;-84
2022/01/04 07:46:38;;;;;;;16.25;2.25;;;8.60;99.90;;;;;;4258861;27;20031;-85
2022/01/04 07:48:42;;;;;;;16.63;2.08;;;7.80;99.90;;;;;;4238276;27;20047;-84
2022/01/04 07:50:44;;;;;;;11.35;2.20;;;7.70;99.90;;;;;;4250354;27;20494;-84
2022/01/04 07:52:47;;;;;;;6.68;1.85;;;7.70;99.90;;;;;;4249582;27;20043;-84
2022/01/04 07:54:48;;;;;;;9.55;2.35;;;7.70;99.90;;;;;;4213950;28;20044;-84
2022/01/04 07:56:49;;;;;;;12.90;2.05;;;7.70;99.90;;;;;;4247426;27;20519;-84
2022/01/04 07:58:52;;;;;;;10.75;1.88;;;7.90;99.90;;;;;;4212032;28;20052;-85
2022/01/04 08:00:53;;;;;;;10.18;1.85;;;7.60;99.90;;;;;;4228855;28;20047;-84
2022/01/04 08:02:55;;;;;;;9.35;1.67;;;8.90;99.90;;;;;;4246881;27;20340;-84
2022/01/04 08:04:55;;;;;;;17.40;2.30;;;7.60;99.90;;;;;;4247184;27;20057;-84
2022/01/04 08:06:56;;;;;;;12.38;2.20;;;8.40;99.90;;;;;;4228400;28;20403;-85
2022/01/04 08:09:00;;;;;;;11.70;2.22;;;7.90;99.90;;;;;;4212202;28;20048;-84
2022/01/04 08:11:01;;;;;;;11.77;2.03;;;7.60;99.90;;;;;;4250072;27;20398;-85
2022/01/04 08:13:04;;;;;;;6.93;1.70;;;7.60;99.90;;;;;;4213559;28;20104;-86
2022/01/04 08:15:05;;;;;;;8.35;1.42;;;8.60;99.90;;;;;;4249212;28;20099;-84
2022/01/04 08:17:06;;;;;;;13.02;2.25;;;7.50;99.90;;;;;;4247579;28;20043;-84
2022/01/04 08:19:07;;;;;;;17.45;2.72;;;8.70;99.90;;;;;;4251671;27;20521;-84
2022/01/04 08:21:07;;;;;;;14.25;1.80;;;8.40;99.90;;;;;;4247402;28;20080;-84
2022/01/04 08:23:08;;;;;;;19.40;3.13;;;7.60;99.90;;;;;;4229255;28;20040;-84
2022/01/04 08:25:10;;;;;;;18.40;2.58;;;8.40;99.90;;;;;;4235405;28;20051;-84
2022/01/04 08:27:12;;;;;;;20.23;2.35;;;7.60;99.90;;;;;;4229345;28;20047;-84
2022/01/04 08:29:13;;;;;;;8.88;2.47;;;7.60;99.90;;;;;;4246236;28;20079;-84
2022/01/04 08:31:14;;;;;;;16.80;2.88;;;8.00;99.90;;;;;;4261644;27;20038;-84
2022/01/04 08:33:15;;;;;;;14.02;2.58;;;8.20;99.90;;;;;;4261962;27;20042;-82
2022/01/04 08:35:18;;;;;;;13.07;2.35;;;8.20;99.90;;;;;;4221462;27;20035;-82
2022/01/04 08:37:19;;;;;;;13.13;2.40;;;7.60;99.90;;;;;;4264160;27;20047;-83
2022/01/04 08:39:26;;;;;;;14.10;2.60;;;7.60;99.90;;;;;;4266419;27;20058;-82
2022/01/04 08:41:29;;;;;;;14.43;1.95;;;7.60;99.90;;;;;;4238265;27;20051;-83
2022/01/04 08:43:29;;;;;;;8.65;2.13;;;7.60;99.90;;;;;;4242136;27;20045;-83
2022/01/04 08:45:31;;;;;;;5.68;1.98;;;7.60;99.90;;;;;;4247136;27;20074;-83
2022/01/04 08:47:32;;;;;;;18.17;2.10;;;7.60;99.90;;;;;;4235553;27;20130;-84
2022/01/04 08:49:32;;;;;;;9.38;2.35;;;8.40;99.90;;;;;;4247378;27;20418;-83
2022/01/04 08:51:34;;;;;;;10.98;1.65;;;7.60;99.90;;;;;;4216533;28;20044;-83
2022/01/04 08:53:35;;;;;;;2.97;0.90;;;7.60;99.90;;;;;;4235383;27;20062;-84
2022/01/04 08:55:36;;;;;;;7.00;1.13;;;7.50;99.90;;;;;;4228882;28;20067;-83
2022/01/04 08:57:38;;;;;;;3.97;0.77;;;8.70;99.90;;;;;;4217203;28;20040;-84
2022/01/04 08:59:40;;;;;;;3.80;0.60;;;8.60;99.90;;;;;;4233436;28;20039;-84
2022/01/04 09:01:41;;;;;;;3.40;0.40;;;7.70;99.90;;;;;;4245751;27;20043;-83
2022/01/04 09:03:41;;;;;;;1.30;0.40;;;7.70;99.90;;;;;;4237731;27;20043;-83
2022/01/04 09:05:42;;;;;;;1.48;0.20;;;7.20;99.90;;;;;;4236401;27;20040;-83
2022/01/04 09:07:44;;;;;;;2.05;0.40;;;7.20;99.90;;;;;;4241953;27;20054;-83
2022/01/04 09:09:45;;;;;;;1.60;0.30;;;7.70;99.90;;;;;;4233497;28;20035;-83
2022/01/04 09:11:49;;;;;;;1.27;0.30;;;8.00;99.90;;;;;;4247093;27;20126;-83
2022/01/04 09:13:55;;;;;;;4.90;0.30;;;7.00;99.90;;;;;;4235601;27;20046;-83
2022/01/04 09:20:36;;;;;;;2.58;0.30;;;6.70;99.90;;;;;;4237108;27;20088;-83
2022/01/04 09:22:38;;;;;;;1.98;0.45;;;6.90;99.90;;;;;;4220597;28;20087;-83
2022/01/04 09:24:38;;;;;;;5.32;0.50;;;6.90;99.90;;;;;;4220023;28;20082;-83
2022/01/04 09:26:39;;;;;;;1.33;0.22;;;6.80;99.90;;;;;;4235841;27;20043;-83
2022/01/04 09:28:40;;;;;;;5.63;0.28;;;6.90;99.90;;;;;;4236440;27;20042;-83
2022/01/04 09:30:43;;;;;;;2.33;0.28;;;7.70;99.90;;;;;;4236486;27;20485;-83
2022/01/04 09:32:44;;;;;;;3.50;0.60;;;7.50;99.90;;;;;;4231964;28;20447;-83
2022/01/04 09:34:45;;;;;;;3.72;0.50;;;6.80;99.90;;;;;;4237312;27;20047;-83
2022/01/04 09:36:46;;;;;;;0.85;0.30;;;7.50;99.90;;;;;;4241698;27;20047;-83
2022/01/04 09:38:46;;;;;;;0.75;0.30;;;6.80;99.90;;;;;;4235850;27;20124;-84
2022/01/04 09:40:51;;;;;;;2.55;0.40;;;7.00;99.90;;;;;;4243350;27;20056;-83
2022/01/04 09:42:52;;;;;;;8.15;0.52;;;7.50;99.90;;;;;;4233430;27;20036;-83
2022/01/04 09:44:53;;;;;;;4.72;0.82;;;7.50;99.90;;;;;;4236064;27;20137;-83
2022/01/04 09:46:55;;;;;;;5.85;0.50;;;6.70;99.90;;;;;;4240645;27;20044;-84
2022/01/04 09:48:57;;;;;;;3.83;0.60;;;6.70;99.90;;;;;;4236726;27;20047;-87
2022/01/04 09:50:59;;;;;;;6.03;0.40;;;7.00;99.90;;;;;;4226111;28;20050;-87
2022/01/04 09:53:01;;;;;;;7.90;0.77;;;6.70;99.90;;;;;;4236126;27;20047;-85
2022/01/04 09:55:04;;;;;;;1.70;0.55;;;6.70;99.90;;;;;;4221308;28;20047;-86
2022/01/04 09:57:06;;;;;;;0.57;0.30;;;6.70;99.90;;;;;;4232214;28;20047;-87
2022/01/04 09:59:07;;;;;;;4.15;0.35;;;6.70;99.90;;;;;;4216528;28;20141;-87
2022/01/04 10:01:25;;;;;;;0.98;0.13;;;7.50;99.90;;;;;;4226778;28;20043;-87
2022/01/04 10:03:29;;;;;;;1.65;0.20;;;6.60;99.90;;;;;;4248122;27;20047;-87
2022/01/04 10:05:31;;;;;;;5.65;0.50;;;6.80;99.90;;;;;;4246229;27;20047;-87
2022/01/04 10:07:32;;;;;;;5.47;0.22;;;6.50;99.90;;;;;;4231541;28;20074;-87
2022/01/04 10:09:44;;;;;;;1.95;0.30;;;6.70;99.90;;;;;;4231640;28;20044;-87
2022/01/04 10:11:50;;;;;;;6.10;0.40;;;6.40;99.90;;;;;;4231374;28;20040;-87
2022/01/04 10:13:52;;;;;;;5.00;0.50;;;7.00;99.90;;;;;;4230386;28;20040;-87
2022/01/04 10:15:52;;;;;;;2.13;0.45;;;6.20;99.90;;;;;;4232608;28;20522;-86
2022/01/04 10:17:57;;;;;;;0.85;0.20;;;6.20;99.90;;;;;;4234590;27;20043;-86
2022/01/04 10:20:00;;;;;;;4.30;0.40;;;7.00;99.90;;;;;;4247822;27;20050;-86
2022/01/04 10:22:17;;;;;;;1.05;0.10;;;6.10;99.90;;;;;;4231572;28;20047;-86
2022/01/04 10:24:18;;;;;;;2.38;0.52;;;6.00;99.90;;;;;;4234037;28;20054;-86
2022/01/04 10:26:37;;;;;;;3.55;0.95;;;6.00;99.90;;;;;;4234335;28;20047;-87
2022/01/04 10:28:41;;;;;;;1.85;0.40;;;6.00;99.90;;;;;;4235930;28;20051;-86
2022/01/04 10:30:44;;;;;;;1.15;0.17;;;6.00;99.90;;;;;;4235626;27;20126;-87
2022/01/04 10:32:53;;;;;;;3.22;0.35;;;6.00;99.90;;;;;;4232113;28;20071;-86
2022/01/04 10:34:56;;;;;;;1.15;0.30;;;6.20;99.90;;;;;;4246056;27;20051;-86
2022/01/04 10:36:57;;;;;;;0.88;0.25;;;6.50;99.90;;;;;;4232080;28;20530;-86
2022/01/04 10:39:08;;;;;;;0.47;0.43;;;6.10;99.90;;;;;;4215860;28;20039;-86
2022/01/04 10:41:15;;;;;;;3.45;0.40;;;6.70;99.90;;;;;;4246962;27;20512;-87
2022/01/04 10:43:23;;;;;;;1.65;0.47;;;6.20;99.90;;;;;;4250193;27;20043;-86
2022/01/04 10:45:29;;;;;;;0.32;0.10;;;6.70;99.90;;;;;;4231632;28;20047;-87
2022/01/04 10:47:30;;;;;;;3.85;0.35;;;6.30;99.90;;;;;;4249597;27;20478;-87